Terminal Aerodrome Forecast
Issued by NWS

Home | Current Version | Previous Version | Graphics & Text | Print | Product List | Glossary On
Versions: 1 2 3 4 5 6 7 8 9 10 11 12 13 14 15 16
000
FTUS45 KGGW 221504 AAA
TAFOLF
TAF AMD
KOLF 221504Z 2215/2312 08006KT P6SM OVC017
     FM221800 08004KT P6SM BKN020
     FM222300 06008KT P6SM BKN035
     FM230700 07010KT P6SM BKN020=

USA.gov is the U.S. government's official web portal to all federal, state and local government web resources and services.